Nissho Maru No.18 — JL6369 — position and weather

sailwx.info

Track history (hours):
 
Tides and Currents Weather Stations Pressure Air Temp Water Temp Dewpoint Dewpoint Depression Visibility Wind Speed Wind Dir Waves Ship Positions

Nissho Maru No.18

Last reported at 2014-Sep-26 20:32 UTC. Time now 2014-Sep-30 11:58 UTC.
Position N 34°37' E 134°57'.

Length 65 m; draft 4 m.

Type: Tanker. MMSI: 431500465.

Date/timePositionNaut miles runAvg speedWind from/ knotsBaromVisibWave heightAir tempDewpointWater temp
2014-Sep-26 20:32N 34°37' E 134°57'7 7.1
2014-Sep-26 19:33N 34°34' E 135°05'1110.0
2014-Sep-26 18:30N 34°24' E 135°02'9 9.2
2014-Sep-26 17:33N 34°16' E 134°59'11 9.8
2014-Sep-26 16:26N 34°05' E 135°01'239 8.8
2014-Sep-25 13:24N 35°07' E 139°42'910.8
2014-Sep-25 12:33N 35°15' E 139°46'1010.4
2014-Sep-25 11:33N 35°25' E 139°44'12 1.3
2014-Sep-25 02:16N 35°30' E 139°58'  
2014-Sep-22 16:31N 35°22' E 139°40'0 0.0
2014-Sep-22 15:31N 35°22' E 139°40'0 0.0
2014-Sep-22 14:31N 35°22' E 139°40'0 0.0
2014-Sep-22 13:31N 35°22' E 139°40'0 0.0
2014-Sep-22 12:31N 35°22' E 139°40'0 0.0
2014-Sep-22 11:31N 35°22' E 139°40'0 0.0
2014-Sep-22 10:32N 35°22' E 139°40'0 0.1
2014-Sep-22 09:32N 35°22' E 139°40'8 7.7
2014-Sep-22 08:34N 35°16' E 139°46'243 8.0
2014-Sep-21 02:16N 34°17' E 134°58'811.4
2014-Sep-21 01:33N 34°25' E 135°00'1110.5
2014-Sep-21 00:33N 34°35' E 135°03'10 8.9
2014-Sep-20 23:29N 34°34' E 134°51'131 3.0
2014-Sep-19 03:26N 34°05' E 132°16'8 0.4
2014-Sep-18 07:32N 34°13' E 132°15'0 0.0
2014-Sep-18 06:32N 34°13' E 132°15'0 0.0
2014-Sep-18 02:32N 34°13' E 132°15'0 0.0
2014-Sep-18 00:23N 34°13' E 132°15'  
Track history (hours):
 
Tides and Currents Weather Stations Pressure Air Temp Water Temp Dewpoint Dewpoint Depression Visibility Wind Speed Wind Dir Waves Ship Positions

Nissho Maru No.18

Last reported at 2014-Sep-26 20:32 UTC. Time now 2014-Sep-30 11:58 UTC.
Position N 34°37' E 134°57'.

Length 65 m; draft 4 m.

Type: Tanker. MMSI: 431500465.

Date/timePositionNaut miles runAvg speedWind from/ knotsBaromVisibWave heightAir tempDewpointWater temp
2014-Sep-26 20:32N 34°37' E 134°57'7 7.1
2014-Sep-26 19:33N 34°34' E 135°05'1110.0
2014-Sep-26 18:30N 34°24' E 135°02'9 9.2
2014-Sep-26 17:33N 34°16' E 134°59'11 9.8
2014-Sep-26 16:26N 34°05' E 135°01'239 8.8
2014-Sep-25 13:24N 35°07' E 139°42'910.8
2014-Sep-25 12:33N 35°15' E 139°46'1010.4
2014-Sep-25 11:33N 35°25' E 139°44'12 1.3
2014-Sep-25 02:16N 35°30' E 139°58'  
2014-Sep-22 16:31N 35°22' E 139°40'0 0.0
2014-Sep-22 15:31N 35°22' E 139°40'0 0.0
2014-Sep-22 14:31N 35°22' E 139°40'0 0.0
2014-Sep-22 13:31N 35°22' E 139°40'0 0.0
2014-Sep-22 12:31N 35°22' E 139°40'0 0.0
2014-Sep-22 11:31N 35°22' E 139°40'0 0.0
2014-Sep-22 10:32N 35°22' E 139°40'0 0.1
2014-Sep-22 09:32N 35°22' E 139°40'8 7.7
2014-Sep-22 08:34N 35°16' E 139°46'243 8.0
2014-Sep-21 02:16N 34°17' E 134°58'811.4
2014-Sep-21 01:33N 34°25' E 135°00'1110.5
2014-Sep-21 00:33N 34°35' E 135°03'10 8.9
2014-Sep-20 23:29N 34°34' E 134°51'131 3.0
2014-Sep-19 03:26N 34°05' E 132°16'8 0.4
2014-Sep-18 07:32N 34°13' E 132°15'0 0.0
2014-Sep-18 06:32N 34°13' E 132°15'0 0.0
2014-Sep-18 02:32N 34°13' E 132°15'0 0.0
2014-Sep-18 00:23N 34°13' E 132°15'  

Dump ship's entire track history